createdAt,value
2023-08-12T00:02:17.320Z,100337.38
2023-08-12T00:04:44.502Z,100334.69
2023-08-12T00:07:11.758Z,100333.03
2023-08-12T00:09:39.066Z,100333.88
2023-08-12T00:12:06.252Z,100331.31
2023-08-12T00:14:33.334Z,100336.66
2023-08-12T00:17:00.450Z,100319.22
2023-08-12T00:19:27.444Z,100328.66
2023-08-12T00:21:54.424Z,100324.41
2023-08-12T00:24:21.600Z,100331.31
2023-08-12T00:26:48.656Z,100329.66
2023-08-12T00:29:15.718Z,100327.94
2023-08-12T00:31:42.710Z,100331.56
2023-08-12T00:34:09.620Z,100323.97
2023-08-12T00:36:36.748Z,100322.84
2023-08-12T00:39:05.254Z,100314.00
2023-08-12T00:41:32.284Z,100317.53
2023-08-12T00:43:59.434Z,100319.34
2023-08-12T00:46:26.712Z,100326.50
2023-08-12T00:48:53.916Z,100327.34
2023-08-12T00:51:21.914Z,100316.81
2023-08-12T00:53:49.660Z,100325.78
2023-08-12T00:56:18.422Z,100311.47
2023-08-12T00:58:46.339Z,100313.44
2023-08-12T01:01:13.897Z,100317.06
2023-08-12T01:03:41.346Z,100316.09
2023-08-12T01:06:08.576Z,100307.09
2023-08-12T01:08:36.940Z,100299.97
2023-08-12T01:11:13.548Z,100295.47
2023-08-12T01:13:51.219Z,100291.09
2023-08-12T01:16:19.845Z,100279.72
2023-08-12T01:18:48.579Z,100284.34
2023-08-12T01:21:18.592Z,100283.34
2023-08-12T01:23:46.321Z,100279.03
2023-08-12T01:26:13.394Z,100271.97
2023-08-12T01:28:40.449Z,100264.69
2023-08-12T01:31:13.702Z,100272.84
2023-08-12T01:33:45.559Z,100263.03
2023-08-12T01:36:21.795Z,100264.94
2023-08-12T01:38:52.591Z,100261.56
2023-08-12T01:41:21.555Z,100266.06
2023-08-12T01:43:48.775Z,100271.53
2023-08-12T01:46:15.800Z,100274.19
2023-08-12T01:48:42.889Z,100267.16
2023-08-12T01:51:09.935Z,100262.69
2023-08-12T01:53:37.013Z,100258.44
2023-08-12T01:56:04.112Z,100252.25
2023-08-12T01:58:31.113Z,100249.50
2023-08-12T02:00:58.178Z,100240.63
2023-08-12T02:03:25.238Z,100249.50
2023-08-12T02:05:52.292Z,100238.81
2023-08-12T02:08:19.328Z,100244.16
2023-08-12T02:10:46.301Z,100251.31
2023-08-12T02:13:13.182Z,100240.75
2023-08-12T02:15:40.214Z,100234.69
2023-08-12T02:18:07.312Z,100234.69
2023-08-12T02:20:34.420Z,100231.31
2023-08-12T02:23:01.468Z,100232.88
2023-08-12T02:25:28.457Z,100228.41
2023-08-12T02:27:55.482Z,100225.03
2023-08-12T02:30:22.425Z,100227.69
2023-08-12T02:32:49.877Z,100215.34
2023-08-12T02:35:19.129Z,100217.03
2023-08-12T02:37:46.047Z,100217.16
2023-08-12T02:40:13.216Z,100213.63
2023-08-12T02:42:40.219Z,100216.28
2023-08-12T02:45:07.777Z,100206.88
2023-08-12T02:47:34.941Z,100211.22
2023-08-12T02:50:01.990Z,100215.59
2023-08-12T02:52:29.015Z,100204.81
2023-08-12T02:54:57.702Z,100198.75
2023-08-12T02:57:24.826Z,100200.56
2023-08-12T02:59:51.807Z,100198.03
2023-08-12T03:02:18.870Z,100200.69
2023-08-12T03:04:45.870Z,100187.50
2023-08-12T03:07:13.073Z,100197.44
2023-08-12T03:09:40.302Z,100198.44
2023-08-12T03:12:07.664Z,100186.06
2023-08-12T03:14:34.689Z,100185.34
2023-08-12T03:17:01.678Z,100180.03
2023-08-12T03:19:28.620Z,100180.03
2023-08-12T03:21:55.734Z,100178.31
2023-08-12T03:24:22.828Z,100181.97
2023-08-12T03:26:49.776Z,100177.34
2023-08-12T03:29:16.742Z,100176.50
2023-08-12T03:31:43.862Z,100180.03
2023-08-12T03:34:10.869Z,100174.69
2023-08-12T03:36:37.906Z,100178.31
2023-08-12T03:39:04.987Z,100168.50
2023-08-12T03:41:32.292Z,100151.94
2023-08-12T03:43:59.348Z,100168.66
2023-08-12T03:46:26.359Z,100167.81
2023-08-12T03:48:53.448Z,100169.47
2023-08-12T03:51:20.503Z,100158.09
2023-08-12T03:53:47.572Z,100162.59
2023-08-12T03:56:16.652Z,100162.59
2023-08-12T03:58:44.234Z,100160.78
2023-08-12T04:01:11.337Z,100152.78
2023-08-12T04:03:38.448Z,100156.53
2023-08-12T04:06:05.461Z,100152.91
2023-08-12T04:08:33.666Z,100150.25
2023-08-12T04:11:00.715Z,100146.72
2023-08-12T04:13:28.064Z,100148.69
2023-08-12T04:15:55.125Z,100147.69
2023-08-12T04:18:22.507Z,100151.94
2023-08-12T04:20:53.953Z,100150.00
2023-08-12T04:23:21.399Z,100135.94
2023-08-12T04:25:49.567Z,100135.13
2023-08-12T04:28:17.372Z,100142.25
2023-08-12T04:30:45.609Z,100134.25
2023-08-12T04:33:13.793Z,100121.91
2023-08-12T04:35:41.554Z,100121.03
2023-08-12T04:38:08.896Z,100125.00
2023-08-12T04:40:35.970Z,100124.75
2023-08-12T04:43:03.221Z,100120.69
2023-08-12T04:45:30.296Z,100107.59
2023-08-12T04:47:57.429Z,100107.34
2023-08-12T04:50:24.464Z,100106.34
2023-08-12T04:52:51.394Z,100107.66
2023-08-12T04:55:18.697Z,100109.47
2023-08-12T04:57:45.688Z,100089.97
2023-08-12T05:00:13.749Z,100099.13
2023-08-12T05:02:40.867Z,100095.34
2023-08-12T05:05:08.288Z,100090.03
2023-08-12T05:07:35.433Z,100094.25
2023-08-12T05:10:03.500Z,100092.41
2023-08-12T05:12:30.576Z,100102.94
2023-08-12T05:14:57.523Z,100086.09
2023-08-12T05:17:24.456Z,100087.78
2023-08-12T05:19:51.489Z,100088.66
2023-08-12T05:22:18.600Z,100080.38
2023-08-12T05:24:45.560Z,100091.75
2023-08-12T05:27:12.601Z,100085.44
2023-08-12T05:29:39.556Z,100080.22
2023-08-12T05:32:06.798Z,100079.00
2023-08-12T05:34:33.919Z,100083.34
2023-08-12T05:37:00.884Z,100080.69
2023-08-12T05:39:27.878Z,100078.00
2023-08-12T05:41:54.913Z,100076.06
2023-08-12T05:44:21.929Z,100074.38
2023-08-12T05:46:48.959Z,100072.66
2023-08-12T05:49:16.121Z,100071.00
2023-08-12T05:51:43.338Z,100069.03
2023-08-12T05:54:10.340Z,100069.31
2023-08-12T05:56:37.388Z,100071.69
2023-08-12T05:59:04.625Z,100070.81
2023-08-12T06:01:31.656Z,100060.88
2023-08-12T06:03:58.767Z,100062.56
2023-08-12T06:06:25.819Z,100067.59
2023-08-12T06:08:52.856Z,100067.34
2023-08-12T06:11:19.870Z,100059.22
2023-08-12T06:13:46.894Z,100060.88
2023-08-12T06:16:13.986Z,100054.59
2023-08-12T06:18:41.046Z,100047.44
2023-08-12T06:21:08.192Z,100042.97
2023-08-12T06:23:35.192Z,100043.78
2023-08-12T06:26:02.519Z,100040.13
2023-08-12T06:28:29.601Z,100039.16
2023-08-12T06:30:56.562Z,100030.16
2023-08-12T06:33:23.671Z,100027.50
2023-08-12T06:35:52.528Z,100032.72
2023-08-12T06:38:19.660Z,100038.06
2023-08-12T06:40:48.744Z,100027.50
2023-08-12T06:43:15.723Z,100037.91
2023-08-12T06:45:42.793Z,100028.94
2023-08-12T06:48:09.846Z,100034.28
2023-08-12T06:50:37.031Z,100028.94
2023-08-12T06:53:04.133Z,100030.59
2023-08-12T06:55:31.125Z,100033.28
2023-08-12T06:57:58.245Z,100031.59
2023-08-12T07:00:25.406Z,100032.56
2023-08-12T07:02:52.580Z,100039.34
2023-08-12T07:05:19.726Z,100034.00
2023-08-12T07:07:46.729Z,100034.00
2023-08-12T07:10:13.775Z,100025.00
2023-08-12T07:12:40.790Z,100035.66
2023-08-12T07:15:09.268Z,100026.53
2023-08-12T07:17:36.562Z,100024.56
2023-08-12T07:20:05.695Z,100022.00
2023-08-12T07:22:32.791Z,100019.50
2023-08-12T07:25:01.610Z,100025.78
2023-08-12T07:27:29.797Z,100014.56
2023-08-12T07:29:57.138Z,100008.22
2023-08-12T07:32:24.282Z,100008.66
2023-08-12T07:34:51.331Z,100003.06
2023-08-12T07:37:18.778Z,99997.63
2023-08-12T07:39:45.979Z,100003.50
2023-08-12T07:42:13.896Z,100006.75
2023-08-12T07:44:41.849Z,99998.59
2023-08-12T07:47:09.221Z,99997.47
2023-08-12T07:49:36.903Z,99995.81
2023-08-12T07:52:04.241Z,99998.31
2023-08-12T07:54:34.441Z,99994.97
2023-08-12T07:57:01.563Z,99984.28
2023-08-12T07:59:28.668Z,99990.91
2023-08-12T08:01:55.782Z,99983.47
2023-08-12T08:04:22.892Z,99984.28
2023-08-12T08:06:51.605Z,99985.84
2023-08-12T08:09:18.990Z,99982.34
2023-08-12T08:11:46.329Z,99974.47
2023-08-12T08:14:13.616Z,99975.16
2023-08-12T08:16:43.381Z,99979.53
2023-08-12T08:19:13.442Z,99971.53
2023-08-12T08:21:40.710Z,99970.56
2023-08-12T08:24:08.190Z,99977.56
2023-08-12T08:26:35.682Z,99966.88
2023-08-12T08:29:03.264Z,99979.00
2023-08-12T08:31:31.485Z,99977.28
2023-08-12T08:33:58.947Z,99968.31
2023-08-12T08:36:26.208Z,99970.84
2023-08-12T08:38:53.548Z,99970.75
2023-08-12T08:41:21.578Z,99970.59
2023-08-12T08:43:50.476Z,99964.28
2023-08-12T08:46:18.061Z,99962.47
2023-08-12T08:48:45.932Z,99964.81
2023-08-12T08:51:13.233Z,99954.88
2023-08-12T08:53:41.739Z,99955.56
2023-08-12T08:56:15.952Z,99955.41
2023-08-12T08:58:43.545Z,99961.59
2023-08-12T09:01:12.528Z,99958.81
2023-08-12T09:03:41.132Z,99959.63
2023-08-12T09:06:08.760Z,99956.69
2023-08-12T09:08:37.616Z,99951.50
2023-08-12T09:11:04.927Z,99952.03
2023-08-12T09:13:32.670Z,99944.75
2023-08-12T09:16:01.126Z,99950.22
2023-08-12T09:18:28.172Z,99947.28
2023-08-12T09:20:55.572Z,99946.44
2023-08-12T09:23:22.792Z,99947.00
2023-08-12T09:25:50.176Z,99935.50
2023-08-12T09:28:17.235Z,99945.03
2023-08-12T09:30:51.455Z,99939.97
2023-08-12T09:33:27.042Z,99936.63
2023-08-12T09:35:55.096Z,99936.63
2023-08-12T09:38:23.000Z,99940.94
2023-08-12T09:40:50.687Z,99944.19
2023-08-12T09:43:18.181Z,99939.53
2023-08-12T09:45:48.506Z,99943.06
2023-08-12T09:48:18.644Z,99939.41
2023-08-12T09:50:46.943Z,99935.50
2023-08-12T09:53:14.111Z,99936.63
2023-08-12T09:55:43.013Z,99932.25
2023-08-12T09:58:13.135Z,99928.72
2023-08-12T10:00:43.041Z,99933.38
2023-08-12T10:03:12.770Z,99936.19
2023-08-12T10:05:40.831Z,99941.53
2023-08-12T10:08:09.596Z,99939.00
2023-08-12T10:10:37.436Z,99926.50
2023-08-12T10:13:08.882Z,99931.69
2023-08-12T10:15:37.048Z,99929.44
2023-08-12T10:18:09.628Z,99931.53
2023-08-12T10:20:39.218Z,99933.22
2023-08-12T10:23:08.384Z,99929.88
2023-08-12T10:25:39.013Z,99929.13
2023-08-12T10:28:06.542Z,99927.19
2023-08-12T10:30:36.465Z,99921.72
2023-08-12T10:33:04.978Z,99922.56
2023-08-12T10:35:46.915Z,99929.59
2023-08-12T10:38:17.989Z,99916.38
2023-08-12T10:40:46.590Z,99912.28
2023-08-12T10:43:16.142Z,99919.88
2023-08-12T10:45:54.183Z,99916.78
2023-08-12T10:48:25.221Z,99918.59
2023-08-12T10:50:59.312Z,99907.22
2023-08-12T10:53:31.339Z,99904.56
2023-08-12T10:56:00.846Z,99905.53
2023-08-12T10:58:35.339Z,99908.47
2023-08-12T11:01:02.980Z,99903.00
2023-08-12T11:03:39.235Z,99904.56
2023-08-12T11:06:06.487Z,99903.97
2023-08-12T11:08:34.910Z,99906.81
2023-08-12T11:11:04.434Z,99901.59
2023-08-12T11:13:32.013Z,99901.59
2023-08-12T11:16:10.979Z,99905.09
2023-08-12T11:18:38.537Z,99905.25
2023-08-12T11:21:07.055Z,99909.59
2023-08-12T11:23:34.438Z,99902.59
2023-08-12T11:26:02.694Z,99902.59
2023-08-12T11:28:30.419Z,99892.47
2023-08-12T11:30:57.781Z,99897.38
2023-08-12T11:33:25.569Z,99893.03
2023-08-12T11:35:53.065Z,99890.38
2023-08-12T11:38:20.391Z,99888.25
2023-08-12T11:40:48.178Z,99884.63
2023-08-12T11:43:15.357Z,99889.09
2023-08-12T11:45:43.708Z,99893.47
2023-08-12T11:48:11.967Z,99892.19
2023-08-12T11:50:39.741Z,99885.19
2023-08-12T11:53:07.163Z,99885.03
2023-08-12T11:55:34.730Z,99887.84
2023-08-12T11:58:02.067Z,99886.44
2023-08-12T12:00:29.569Z,99889.94
2023-08-12T12:02:58.585Z,99892.63
2023-08-12T12:05:29.697Z,99889.09
2023-08-12T12:07:57.126Z,99891.66
2023-08-12T12:10:34.833Z,99888.13
2023-08-12T12:13:04.608Z,99887.00
2023-08-12T12:15:33.300Z,99875.34
2023-08-12T12:18:00.729Z,99876.34
2023-08-12T12:20:28.688Z,99867.31
2023-08-12T12:22:56.436Z,99868.19
2023-08-12T12:25:24.632Z,99875.66
2023-08-12T12:27:51.939Z,99870.72
2023-08-12T12:30:20.313Z,99862.72
2023-08-12T12:32:47.501Z,99869.75
2023-08-12T12:35:14.607Z,99866.09
2023-08-12T12:37:41.707Z,99865.28
2023-08-12T12:40:09.595Z,99855.41
2023-08-12T12:42:36.630Z,99864.16
2023-08-12T12:45:04.293Z,99845.31
2023-08-12T12:47:31.814Z,99858.66
2023-08-12T12:49:59.204Z,99852.19
2023-08-12T12:52:26.609Z,99846.56
2023-08-12T12:54:54.074Z,99848.53
2023-08-12T12:57:21.268Z,99851.06
2023-08-12T12:59:48.374Z,99848.94
2023-08-12T13:02:15.716Z,99829.81
2023-08-12T13:04:44.203Z,99835.44
2023-08-12T13:07:11.268Z,99844.44
2023-08-12T13:09:39.231Z,99840.22
2023-08-12T13:12:06.809Z,99831.38
2023-08-12T13:14:33.891Z,99832.22
2023-08-12T13:17:00.981Z,99837.41
2023-08-12T13:19:28.041Z,99845.84
2023-08-12T13:21:55.134Z,99851.19
2023-08-12T13:24:22.094Z,99864.66
2023-08-12T13:26:49.244Z,99861.13
2023-08-12T13:29:16.249Z,99853.13
2023-08-12T13:31:43.496Z,99846.13
2023-08-12T13:34:10.552Z,99851.03
2023-08-12T13:36:37.997Z,99854.53
2023-08-12T13:39:05.302Z,99857.06
2023-08-12T13:41:32.391Z,99858.88
2023-08-12T13:43:59.442Z,99849.19
2023-08-12T13:46:26.601Z,99846.09
2023-08-12T13:48:54.405Z,99859.31
2023-08-12T13:51:21.549Z,99849.72
2023-08-12T13:53:48.588Z,99851.31
2023-08-12T13:56:16.299Z,99848.03
2023-08-12T13:58:43.349Z,99847.06
2023-08-12T14:01:10.373Z,99846.38
2023-08-12T14:03:38.791Z,99851.72
2023-08-12T14:06:06.406Z,99850.69
2023-08-12T14:08:33.617Z,99846.38
2023-08-12T14:11:01.208Z,99842.69
2023-08-12T14:13:28.295Z,99848.88
2023-08-12T14:15:55.803Z,99853.38
2023-08-12T14:18:22.888Z,99835.69
2023-08-12T14:20:50.016Z,99839.88
2023-08-12T14:23:17.313Z,99846.03
2023-08-12T14:25:44.406Z,99855.19
2023-08-12T14:28:11.800Z,99860.69
2023-08-12T14:30:39.205Z,99865.34
2023-08-12T14:33:07.422Z,99876.72
2023-08-12T14:35:36.038Z,99884.56
2023-08-12T14:38:03.868Z,99876.72
2023-08-12T14:40:32.320Z,99877.56
2023-08-12T14:42:59.453Z,99870.53
2023-08-12T14:45:26.754Z,99863.53
2023-08-12T14:47:53.942Z,99868.97
2023-08-12T14:50:21.118Z,99860.00
2023-08-12T14:52:48.259Z,99868.84
2023-08-12T14:55:15.595Z,99859.00
2023-08-12T14:57:42.718Z,99860.69
2023-08-12T15:00:12.057Z,99858.03
2023-08-12T15:02:39.536Z,99855.34
2023-08-12T15:05:07.949Z,99855.34
2023-08-12T15:07:35.396Z,99841.84
2023-08-12T15:10:02.734Z,99851.38
2023-08-12T15:12:30.306Z,99853.38
2023-08-12T15:14:58.543Z,99840.88
2023-08-12T15:17:25.812Z,99835.38
2023-08-12T15:19:53.606Z,99841.28
2023-08-12T15:22:20.858Z,99842.13
2023-08-12T15:24:48.065Z,99842.13
2023-08-12T15:27:15.567Z,99843.81
2023-08-12T15:29:43.013Z,99842.81
2023-08-12T15:32:10.131Z,99850.97
2023-08-12T15:34:37.448Z,99845.19
2023-08-12T15:37:05.494Z,99855.31
2023-08-12T15:39:32.842Z,99842.97
2023-08-12T15:42:00.256Z,99839.44
2023-08-12T15:44:27.313Z,99849.28
2023-08-12T15:46:54.523Z,99838.75
2023-08-12T15:49:22.083Z,99848.84
2023-08-12T15:51:49.460Z,99852.06
2023-08-12T15:54:16.631Z,99848.84
2023-08-12T15:56:44.280Z,99849.84
2023-08-12T15:59:11.437Z,99852.50
2023-08-12T16:01:38.779Z,99846.16
2023-08-12T16:04:06.756Z,99852.78
2023-08-12T16:06:34.444Z,99848.31
2023-08-12T16:09:17.641Z,99845.75
2023-08-12T16:11:46.564Z,99841.13
2023-08-12T16:14:13.815Z,99850.97
2023-08-12T16:16:41.134Z,99846.59
2023-08-12T16:19:08.323Z,99846.59
2023-08-12T16:21:35.605Z,99840.28
2023-08-12T16:24:02.778Z,99833.13
2023-08-12T16:26:30.036Z,99850.13
2023-08-12T16:28:57.327Z,99844.94
2023-08-12T16:31:25.267Z,99852.09
2023-08-12T16:33:52.231Z,99852.78
2023-08-12T16:36:19.431Z,99842.41
2023-08-12T16:38:46.816Z,99844.78
2023-08-12T16:41:14.299Z,99841.56
2023-08-12T16:43:41.499Z,99855.75
2023-08-12T16:46:08.663Z,99853.09
2023-08-12T16:48:35.819Z,99851.38
2023-08-12T16:51:03.176Z,99847.47
2023-08-12T16:53:30.535Z,99850.28
2023-08-12T16:55:58.114Z,99843.25
2023-08-12T16:58:25.232Z,99845.06
2023-08-12T17:00:52.935Z,99842.00
2023-08-12T17:03:20.178Z,99850.28
2023-08-12T17:05:47.963Z,99853.25
2023-08-12T17:08:15.744Z,99858.31
2023-08-12T17:10:43.162Z,99850.28
2023-08-12T17:13:10.449Z,99856.75
2023-08-12T17:15:38.889Z,99845.25
2023-08-12T17:18:06.363Z,99845.53
2023-08-12T17:20:33.823Z,99850.88
2023-08-12T17:23:01.339Z,99847.50
2023-08-12T17:25:28.578Z,99857.91
2023-08-12T17:27:58.147Z,99861.25
2023-08-12T17:30:25.552Z,99860.72
2023-08-12T17:32:52.743Z,99856.19
2023-08-12T17:35:19.873Z,99860.56
2023-08-12T17:37:47.027Z,99860.84
2023-08-12T17:40:15.646Z,99851.59
2023-08-12T17:42:42.860Z,99847.22
2023-08-12T17:45:10.347Z,99858.06
2023-08-12T17:47:37.803Z,99853.53
2023-08-12T17:50:05.604Z,99847.91
2023-08-12T17:52:34.234Z,99856.19
2023-08-12T17:55:01.375Z,99854.53
2023-08-12T17:57:28.662Z,99866.59
2023-08-12T17:59:56.792Z,99872.09
2023-08-12T18:02:24.178Z,99874.75
2023-08-12T18:04:51.993Z,99878.56
2023-08-12T18:07:19.076Z,99884.88
2023-08-12T18:09:46.493Z,99888.41
2023-08-12T18:12:14.366Z,99902.59
2023-08-12T18:14:44.375Z,99911.28
2023-08-12T18:17:12.148Z,99907.66
2023-08-12T18:19:39.707Z,99915.38
2023-08-12T18:22:08.387Z,99909.59
2023-08-12T18:24:38.745Z,99899.78
2023-08-12T18:27:06.701Z,99910.28
2023-08-12T18:29:37.859Z,99907.34
2023-08-12T18:32:06.854Z,99901.84
2023-08-12T18:34:34.572Z,99906.22
2023-08-12T18:37:02.441Z,99902.56
2023-08-12T18:39:30.945Z,99925.59
2023-08-12T18:41:58.458Z,99917.44
2023-08-12T18:44:26.034Z,99916.59
2023-08-12T18:46:53.846Z,99918.16
2023-08-12T18:49:23.037Z,99907.31
2023-08-12T18:51:51.003Z,99912.66
2023-08-12T18:54:18.825Z,99911.66
2023-08-12T18:56:49.583Z,99907.47
2023-08-12T18:59:20.126Z,99905.34
2023-08-12T19:01:53.910Z,99903.25
2023-08-12T19:04:23.912Z,99917.13
2023-08-12T19:06:51.850Z,99924.19
2023-08-12T19:09:22.325Z,99918.84
2023-08-12T19:11:50.936Z,99930.38
2023-08-12T19:14:18.335Z,99927.53
2023-08-12T19:16:45.814Z,99923.03
2023-08-12T19:19:16.100Z,99921.22
2023-08-12T19:21:44.624Z,99923.19
2023-08-12T19:24:13.957Z,99926.41
2023-08-12T19:26:41.897Z,99930.78
2023-08-12T19:29:10.900Z,99926.13
2023-08-12T19:31:42.750Z,99925.16
2023-08-12T19:34:13.797Z,99920.66
2023-08-12T19:37:02.581Z,99927.66
2023-08-12T19:39:35.083Z,99924.16
2023-08-12T19:42:03.562Z,99919.66
2023-08-12T19:44:32.140Z,99928.66
2023-08-12T19:47:05.455Z,99920.78
2023-08-12T19:49:36.818Z,99923.31
2023-08-12T19:52:05.500Z,99924.16
2023-08-12T19:54:35.145Z,99930.34
2023-08-12T19:57:04.770Z,99921.63
2023-08-12T19:59:35.293Z,99930.78
2023-08-12T20:02:06.284Z,99927.81
2023-08-12T20:04:34.626Z,99932.88
2023-08-12T20:07:03.033Z,99933.84
2023-08-12T20:09:32.348Z,99941.34
2023-08-12T20:12:07.247Z,99938.09
2023-08-12T20:14:35.154Z,99945.69
2023-08-12T20:17:04.471Z,99949.75
2023-08-12T20:19:38.480Z,99956.63
2023-08-12T20:22:06.986Z,99955.66
2023-08-12T20:24:35.015Z,99951.97
2023-08-12T20:27:03.323Z,99958.47
2023-08-12T20:29:32.354Z,99962.13
2023-08-12T20:32:02.890Z,99961.44
2023-08-12T20:34:31.449Z,99961.84
2023-08-12T20:37:00.907Z,99949.78
2023-08-12T20:39:32.961Z,99959.34
2023-08-12T20:42:04.900Z,99965.53
2023-08-12T20:44:33.576Z,99972.53
2023-08-12T20:47:02.529Z,99966.22
2023-08-12T20:49:30.232Z,99966.78
2023-08-12T20:52:01.544Z,99971.28
2023-08-12T20:54:29.511Z,99962.25
2023-08-12T20:56:58.905Z,99970.28
2023-08-12T20:59:32.100Z,99966.63
2023-08-12T21:02:01.397Z,99965.78
2023-08-12T21:04:29.444Z,99967.47
2023-08-12T21:07:00.640Z,99973.38
2023-08-12T21:09:29.718Z,99970.88
2023-08-12T21:11:57.687Z,99964.28
2023-08-12T21:14:26.619Z,99978.31
2023-08-12T21:16:53.826Z,99973.25
2023-08-12T21:19:22.655Z,99977.22
2023-08-12T21:21:50.203Z,99974.13
2023-08-12T21:24:18.646Z,99980.16
2023-08-12T21:26:51.646Z,99975.09
2023-08-12T21:29:19.060Z,99972.69
2023-08-12T21:31:47.260Z,99963.16
2023-08-12T21:34:14.734Z,99968.94
2023-08-12T21:36:42.275Z,99967.50
2023-08-12T21:39:09.492Z,99964.13
2023-08-12T21:41:36.789Z,99975.09
2023-08-12T21:44:06.691Z,99981.56
2023-08-12T21:46:34.352Z,99979.31
2023-08-12T21:49:01.834Z,99979.31
2023-08-12T21:51:29.255Z,99983.94
2023-08-12T21:53:56.485Z,99985.78
2023-08-12T21:56:24.941Z,99980.44
2023-08-12T21:58:55.481Z,99985.91
2023-08-12T22:01:23.992Z,99984.34
2023-08-12T22:03:51.337Z,99983.50
2023-08-12T22:06:19.062Z,99987.28
2023-08-12T22:08:46.836Z,99982.13
2023-08-12T22:11:15.037Z,99978.75
2023-08-12T22:13:42.322Z,99981.41
2023-08-12T22:16:09.746Z,99984.91
2023-08-12T22:18:37.138Z,99984.31
2023-08-12T22:21:05.335Z,99989.66
2023-08-12T22:23:32.733Z,99991.63
2023-08-12T22:25:59.949Z,99985.44
2023-08-12T22:28:27.268Z,99980.97
2023-08-12T22:30:54.560Z,99978.56
2023-08-12T22:33:23.425Z,99983.91
2023-08-12T22:35:50.664Z,99984.03
2023-08-12T22:38:17.759Z,99988.50
2023-08-12T22:40:44.893Z,99988.81
2023-08-12T22:43:11.920Z,99991.47
2023-08-12T22:45:43.674Z,99987.97
2023-08-12T22:48:11.311Z,99985.41
2023-08-12T22:50:38.595Z,99979.66
2023-08-12T22:53:06.029Z,99982.91
2023-08-12T22:55:33.737Z,99982.03
2023-08-12T22:58:01.074Z,99978.69
2023-08-12T23:00:28.264Z,99978.69
2023-08-12T23:02:55.523Z,99984.03
2023-08-12T23:05:22.680Z,99977.84
2023-08-12T23:07:49.765Z,99984.13
2023-08-12T23:10:16.821Z,99982.47
2023-08-12T23:12:43.984Z,99988.78
2023-08-12T23:15:11.249Z,99994.97
2023-08-12T23:17:38.615Z,100003.13
2023-08-12T23:20:07.238Z,100002.25
2023-08-12T23:22:34.659Z,99999.00
2023-08-12T23:25:01.888Z,100000.81
2023-08-12T23:27:28.943Z,100000.81
2023-08-12T23:29:56.056Z,99999.16
2023-08-12T23:32:23.945Z,100008.13
2023-08-12T23:34:51.093Z,100010.81
2023-08-12T23:37:18.205Z,100016.13
2023-08-12T23:39:45.262Z,100012.63
2023-08-12T23:42:13.184Z,100017.25
2023-08-12T23:44:40.668Z,100022.44
2023-08-12T23:47:07.987Z,100025.94
2023-08-12T23:49:35.477Z,100014.59
2023-08-12T23:52:02.534Z,100026.09
2023-08-12T23:54:29.695Z,100010.66
2023-08-12T23:56:57.118Z,100009.84
2023-08-12T23:59:24.130Z,100017.69
